Terminal Aerodrome Forecast
Issued by NWS Cleveland, OH

Home | Current Version | Previous Version | Graphics & Text | Print | Product List | Glossary On
Versions: 1 2 3 4 5 6 7 8 9 10 11 12 13 14 15 16 17
376
FTUS41 KCLE 220521
TAFYNG
TAF
KYNG 220521Z 2206/2306 VRB03KT P6SM FEW003 SCT070
     FM220900 VRB03KT 5SM BR SCT003 SCT100
      TEMPO 2209/2213 2SM BR BKN003
     FM221400 34006KT P6SM SCT035 BKN100
     FM221700 35012G20KT P6SM SCT025 BKN035
     FM230200 35005KT P6SM SCT035=

USA.gov is the U.S. government's official web portal to all federal, state and local government web resources and services.